sensor_id;sensor_type;location;lat;lon;timestamp;temperature;humidity
22986;DHT22;11659;51.092;7.080;2022-08-04T00:01:30;22.80;96.00
22986;DHT22;11659;51.092;7.080;2022-08-04T00:04:01;22.80;96.10
22986;DHT22;11659;51.092;7.080;2022-08-04T00:06:38;22.80;96.20
22986;DHT22;11659;51.092;7.080;2022-08-04T00:09:14;22.70;96.20
22986;DHT22;11659;51.092;7.080;2022-08-04T00:11:44;22.70;96.20
22986;DHT22;11659;51.092;7.080;2022-08-04T00:14:13;22.70;96.30
22986;DHT22;11659;51.092;7.080;2022-08-04T00:16:41;22.70;96.40
22986;DHT22;11659;51.092;7.080;2022-08-04T00:19:10;22.70;96.40
22986;DHT22;11659;51.092;7.080;2022-08-04T00:21:41;22.60;96.40
22986;DHT22;11659;51.092;7.080;2022-08-04T00:24:12;22.60;96.50
22986;DHT22;11659;51.092;7.080;2022-08-04T00:26:39;22.60;96.50
22986;DHT22;11659;51.092;7.080;2022-08-04T00:29:05;22.60;96.50
22986;DHT22;11659;51.092;7.080;2022-08-04T00:31:31;22.60;96.50
22986;DHT22;11659;51.092;7.080;2022-08-04T00:33:58;22.60;96.60
22986;DHT22;11659;51.092;7.080;2022-08-04T00:36:26;22.60;96.60
22986;DHT22;11659;51.092;7.080;2022-08-04T00:38:54;22.50;96.60
22986;DHT22;11659;51.092;7.080;2022-08-04T00:41:29;22.60;96.70
22986;DHT22;11659;51.092;7.080;2022-08-04T00:44:20;22.60;96.70
22986;DHT22;11659;51.092;7.080;2022-08-04T00:46:59;22.50;96.70
22986;DHT22;11659;51.092;7.080;2022-08-04T00:49:53;22.50;96.70
22986;DHT22;11659;51.092;7.080;2022-08-04T00:52:32;22.50;96.70
22986;DHT22;11659;51.092;7.080;2022-08-04T00:55:07;22.50;96.70
22986;DHT22;11659;51.092;7.080;2022-08-04T00:57:54;22.50;96.80
22986;DHT22;11659;51.092;7.080;2022-08-04T01:00:27;22.50;96.80
22986;DHT22;11659;51.092;7.080;2022-08-04T01:03:08;22.50;96.80
22986;DHT22;11659;51.092;7.080;2022-08-04T01:05:51;22.50;96.90
22986;DHT22;11659;51.092;7.080;2022-08-04T01:08:35;22.50;96.90
22986;DHT22;11659;51.092;7.080;2022-08-04T01:11:14;22.50;97.00
22986;DHT22;11659;51.092;7.080;2022-08-04T01:13:55;22.40;97.10
22986;DHT22;11659;51.092;7.080;2022-08-04T01:16:26;22.40;97.10
22986;DHT22;11659;51.092;7.080;2022-08-04T01:18:58;22.40;97.20
22986;DHT22;11659;51.092;7.080;2022-08-04T01:21:45;22.30;97.30
22986;DHT22;11659;51.092;7.080;2022-08-04T01:24:28;22.30;97.30
22986;DHT22;11659;51.092;7.080;2022-08-04T01:27:01;22.20;97.40
22986;DHT22;11659;51.092;7.080;2022-08-04T01:29:33;22.20;97.50
22986;DHT22;11659;51.092;7.080;2022-08-04T01:32:02;22.20;97.70
22986;DHT22;11659;51.092;7.080;2022-08-04T01:34:30;22.10;97.70
22986;DHT22;11659;51.092;7.080;2022-08-04T01:37:05;22.10;97.80
22986;DHT22;11659;51.092;7.080;2022-08-04T01:39:35;22.00;97.90
22986;DHT22;11659;51.092;7.080;2022-08-04T01:42:08;22.00;98.00
22986;DHT22;11659;51.092;7.080;2022-08-04T01:44:37;21.90;98.10
22986;DHT22;11659;51.092;7.080;2022-08-04T01:47:03;21.90;98.20
22986;DHT22;11659;51.092;7.080;2022-08-04T01:49:30;21.90;98.30
22986;DHT22;11659;51.092;7.080;2022-08-04T01:51:57;21.80;98.40
22986;DHT22;11659;51.092;7.080;2022-08-04T01:54:24;21.80;98.50
22986;DHT22;11659;51.092;7.080;2022-08-04T01:56:51;21.70;98.60
22986;DHT22;11659;51.092;7.080;2022-08-04T01:59:19;21.50;98.60
22986;DHT22;11659;51.092;7.080;2022-08-04T02:01:47;21.70;98.70
22986;DHT22;11659;51.092;7.080;2022-08-04T02:04:13;21.60;98.80
22986;DHT22;11659;51.092;7.080;2022-08-04T02:06:48;21.60;98.80
22986;DHT22;11659;51.092;7.080;2022-08-04T02:09:21;21.60;98.90
22986;DHT22;11659;51.092;7.080;2022-08-04T02:12:02;21.60;98.90
22986;DHT22;11659;51.092;7.080;2022-08-04T02:14:30;21.60;99.00
22986;DHT22;11659;51.092;7.080;2022-08-04T02:17:11;21.60;99.00
22986;DHT22;11659;51.092;7.080;2022-08-04T02:19:52;21.50;99.00
22986;DHT22;11659;51.092;7.080;2022-08-04T02:22:24;21.50;99.10
22986;DHT22;11659;51.092;7.080;2022-08-04T02:24:57;21.50;99.10
22986;DHT22;11659;51.092;7.080;2022-08-04T02:27:33;21.50;99.20
22986;DHT22;11659;51.092;7.080;2022-08-04T02:30:04;21.40;99.20
22986;DHT22;11659;51.092;7.080;2022-08-04T02:32:35;21.40;99.20
22986;DHT22;11659;51.092;7.080;2022-08-04T02:35:07;21.40;99.30
22986;DHT22;11659;51.092;7.080;2022-08-04T02:37:34;21.40;99.30
22986;DHT22;11659;51.092;7.080;2022-08-04T02:40:03;21.40;99.40
22986;DHT22;11659;51.092;7.080;2022-08-04T02:42:29;21.40;99.40
22986;DHT22;11659;51.092;7.080;2022-08-04T02:44:57;21.40;99.40
22986;DHT22;11659;51.092;7.080;2022-08-04T02:47:25;21.40;99.80
22986;DHT22;11659;51.092;7.080;2022-08-04T02:49:56;21.40;99.50
22986;DHT22;11659;51.092;7.080;2022-08-04T02:52:23;21.40;99.50
22986;DHT22;11659;51.092;7.080;2022-08-04T02:54:55;21.30;99.50
22986;DHT22;11659;51.092;7.080;2022-08-04T02:57:28;21.30;99.50
22986;DHT22;11659;51.092;7.080;2022-08-04T03:00:06;21.30;99.60
22986;DHT22;11659;51.092;7.080;2022-08-04T03:02:46;21.30;99.60
22986;DHT22;11659;51.092;7.080;2022-08-04T03:05:18;21.20;99.70
22986;DHT22;11659;51.092;7.080;2022-08-04T03:08:19;21.20;99.70
22986;DHT22;11659;51.092;7.080;2022-08-04T03:11:36;21.20;99.80
22986;DHT22;11659;51.092;7.080;2022-08-04T03:17:45;21.10;99.90
22986;DHT22;11659;51.092;7.080;2022-08-04T03:20:44;21.10;99.90
22986;DHT22;11659;51.092;7.080;2022-08-04T03:30:03;21.00;99.90
22986;DHT22;11659;51.092;7.080;2022-08-04T03:33:04;20.90;99.90
22986;DHT22;11659;51.092;7.080;2022-08-04T03:35:57;20.90;99.90
22986;DHT22;11659;51.092;7.080;2022-08-04T03:38:56;20.90;99.90
22986;DHT22;11659;51.092;7.080;2022-08-04T03:41:42;20.90;99.90
22986;DHT22;11659;51.092;7.080;2022-08-04T03:44:38;20.80;99.90
22986;DHT22;11659;51.092;7.080;2022-08-04T03:47:37;20.80;99.90
22986;DHT22;11659;51.092;7.080;2022-08-04T03:53:47;20.80;99.90
22986;DHT22;11659;51.092;7.080;2022-08-04T03:59:44;20.80;99.90
22986;DHT22;11659;51.092;7.080;2022-08-04T04:05:40;20.80;99.90
22986;DHT22;11659;51.092;7.080;2022-08-04T04:08:28;20.80;99.90
22986;DHT22;11659;51.092;7.080;2022-08-04T04:14:17;20.70;99.90
22986;DHT22;11659;51.092;7.080;2022-08-04T04:16:59;20.70;99.90
22986;DHT22;11659;51.092;7.080;2022-08-04T04:19:53;20.70;99.90
22986;DHT22;11659;51.092;7.080;2022-08-04T04:22:28;20.70;99.90
22986;DHT22;11659;51.092;7.080;2022-08-04T04:25:18;20.70;99.90
22986;DHT22;11659;51.092;7.080;2022-08-04T04:28:25;20.70;99.90
22986;DHT22;11659;51.092;7.080;2022-08-04T04:31:02;20.70;99.90
22986;DHT22;11659;51.092;7.080;2022-08-04T04:33:37;20.70;99.90
22986;DHT22;11659;51.092;7.080;2022-08-04T04:36:12;20.70;99.90
22986;DHT22;11659;51.092;7.080;2022-08-04T04:38:51;20.70;99.90
22986;DHT22;11659;51.092;7.080;2022-08-04T04:41:49;20.70;99.90
22986;DHT22;11659;51.092;7.080;2022-08-04T04:45:00;20.70;99.90
22986;DHT22;11659;51.092;7.080;2022-08-04T04:47:36;20.80;99.90
22986;DHT22;11659;51.092;7.080;2022-08-04T04:50:10;20.80;99.90
22986;DHT22;11659;51.092;7.080;2022-08-04T04:52:44;20.80;99.90
22986;DHT22;11659;51.092;7.080;2022-08-04T04:55:16;20.70;99.90
22986;DHT22;11659;51.092;7.080;2022-08-04T04:57:44;20.80;99.90
22986;DHT22;11659;51.092;7.080;2022-08-04T05:00:12;20.80;99.90
22986;DHT22;11659;51.092;7.080;2022-08-04T05:03:17;20.70;99.90
22986;DHT22;11659;51.092;7.080;2022-08-04T05:06:04;20.80;99.90
22986;DHT22;11659;51.092;7.080;2022-08-04T05:09:06;20.80;99.90
22986;DHT22;11659;51.092;7.080;2022-08-04T05:14:29;20.80;99.90
22986;DHT22;11659;51.092;7.080;2022-08-04T05:17:00;20.80;99.90
22986;DHT22;11659;51.092;7.080;2022-08-04T05:19:37;20.80;99.90
22986;DHT22;11659;51.092;7.080;2022-08-04T05:22:09;20.80;99.90
22986;DHT22;11659;51.092;7.080;2022-08-04T05:24:39;20.90;99.90
22986;DHT22;11659;51.092;7.080;2022-08-04T05:27:11;20.90;99.90
22986;DHT22;11659;51.092;7.080;2022-08-04T05:29:45;20.90;99.90
22986;DHT22;11659;51.092;7.080;2022-08-04T05:32:15;21.00;99.90
22986;DHT22;11659;51.092;7.080;2022-08-04T05:34:52;21.10;99.90
22986;DHT22;11659;51.092;7.080;2022-08-04T05:37:21;21.10;99.90
22986;DHT22;11659;51.092;7.080;2022-08-04T05:39:51;21.10;99.90
22986;DHT22;11659;51.092;7.080;2022-08-04T05:42:19;21.20;99.90
22986;DHT22;11659;51.092;7.080;2022-08-04T05:44:45;21.20;99.90
22986;DHT22;11659;51.092;7.080;2022-08-04T05:47:12;21.30;99.90
22986;DHT22;11659;51.092;7.080;2022-08-04T05:49:40;21.40;99.90
22986;DHT22;11659;51.092;7.080;2022-08-04T05:52:09;21.50;99.90
22986;DHT22;11659;51.092;7.080;2022-08-04T05:54:37;21.60;99.90
22986;DHT22;11659;51.092;7.080;2022-08-04T05:57:04;21.70;99.90
22986;DHT22;11659;51.092;7.080;2022-08-04T05:59:32;21.80;99.90
22986;DHT22;11659;51.092;7.080;2022-08-04T06:02:00;21.90;99.90
22986;DHT22;11659;51.092;7.080;2022-08-04T06:04:30;22.10;99.90
22986;DHT22;11659;51.092;7.080;2022-08-04T06:06:57;22.20;99.90
22986;DHT22;11659;51.092;7.080;2022-08-04T06:09:25;22.20;99.90
22986;DHT22;11659;51.092;7.080;2022-08-04T06:11:52;22.30;99.90
22986;DHT22;11659;51.092;7.080;2022-08-04T06:14:21;22.40;99.90
22986;DHT22;11659;51.092;7.080;2022-08-04T06:16:49;22.50;99.90
22986;DHT22;11659;51.092;7.080;2022-08-04T06:19:17;22.60;99.90
22986;DHT22;11659;51.092;7.080;2022-08-04T06:21:46;22.70;99.90
22986;DHT22;11659;51.092;7.080;2022-08-04T06:24:16;22.80;99.90
22986;DHT22;11659;51.092;7.080;2022-08-04T06:26:45;22.90;99.90
22986;DHT22;11659;51.092;7.080;2022-08-04T06:29:12;23.10;99.90
22986;DHT22;11659;51.092;7.080;2022-08-04T06:31:53;23.30;99.90
22986;DHT22;11659;51.092;7.080;2022-08-04T06:34:24;23.40;99.90
22986;DHT22;11659;51.092;7.080;2022-08-04T06:36:51;23.60;99.50
22986;DHT22;11659;51.092;7.080;2022-08-04T06:39:18;23.80;99.20
22986;DHT22;11659;51.092;7.080;2022-08-04T06:41:48;23.90;98.70
22986;DHT22;11659;51.092;7.080;2022-08-04T06:44:15;24.10;98.30
22986;DHT22;11659;51.092;7.080;2022-08-04T06:46:42;24.20;98.00
22986;DHT22;11659;51.092;7.080;2022-08-04T06:49:09;24.40;97.80
22986;DHT22;11659;51.092;7.080;2022-08-04T06:51:36;24.50;97.40
22986;DHT22;11659;51.092;7.080;2022-08-04T06:54:03;24.70;96.90
22986;DHT22;11659;51.092;7.080;2022-08-04T06:56:30;24.90;96.20
22986;DHT22;11659;51.092;7.080;2022-08-04T06:59:00;25.00;95.70
22986;DHT22;11659;51.092;7.080;2022-08-04T07:01:27;25.20;95.40
22986;DHT22;11659;51.092;7.080;2022-08-04T07:03:54;25.30;95.00
22986;DHT22;11659;51.092;7.080;2022-08-04T07:06:20;25.50;94.80
22986;DHT22;11659;51.092;7.080;2022-08-04T07:08:47;25.60;94.50
22986;DHT22;11659;51.092;7.080;2022-08-04T07:11:14;25.70;94.30
22986;DHT22;11659;51.092;7.080;2022-08-04T07:13:40;25.80;94.00
22986;DHT22;11659;51.092;7.080;2022-08-04T07:16:10;25.90;93.80
22986;DHT22;11659;51.092;7.080;2022-08-04T07:18:37;26.00;93.60
22986;DHT22;11659;51.092;7.080;2022-08-04T07:21:03;26.10;93.30
22986;DHT22;11659;51.092;7.080;2022-08-04T07:23:30;26.20;93.20
22986;DHT22;11659;51.092;7.080;2022-08-04T07:25:56;26.30;93.00
22986;DHT22;11659;51.092;7.080;2022-08-04T07:28:24;26.40;92.50
22986;DHT22;11659;51.092;7.080;2022-08-04T07:30:52;26.50;92.50
22986;DHT22;11659;51.092;7.080;2022-08-04T07:33:20;26.50;92.50
22986;DHT22;11659;51.092;7.080;2022-08-04T07:35:50;26.60;92.40
22986;DHT22;11659;51.092;7.080;2022-08-04T07:38:17;26.60;92.20
22986;DHT22;11659;51.092;7.080;2022-08-04T07:40:45;26.70;92.20
22986;DHT22;11659;51.092;7.080;2022-08-04T07:43:13;26.70;92.20
22986;DHT22;11659;51.092;7.080;2022-08-04T07:45:40;26.80;92.10
22986;DHT22;11659;51.092;7.080;2022-08-04T07:48:06;26.80;91.60
22986;DHT22;11659;51.092;7.080;2022-08-04T07:50:35;26.80;91.40
22986;DHT22;11659;51.092;7.080;2022-08-04T07:53:03;26.90;91.40
22986;DHT22;11659;51.092;7.080;2022-08-04T07:55:29;26.90;91.40
22986;DHT22;11659;51.092;7.080;2022-08-04T07:57:56;27.00;91.40
22986;DHT22;11659;51.092;7.080;2022-08-04T08:00:22;26.90;91.30
22986;DHT22;11659;51.092;7.080;2022-08-04T08:02:49;27.00;91.30
22986;DHT22;11659;51.092;7.080;2022-08-04T08:05:18;27.00;91.20
22986;DHT22;11659;51.092;7.080;2022-08-04T08:07:47;27.10;91.50
22986;DHT22;11659;51.092;7.080;2022-08-04T08:10:13;27.20;91.10
22986;DHT22;11659;51.092;7.080;2022-08-04T08:12:40;27.20;91.00
22986;DHT22;11659;51.092;7.080;2022-08-04T08:15:07;27.30;91.10
22986;DHT22;11659;51.092;7.080;2022-08-04T08:17:34;27.30;91.20
22986;DHT22;11659;51.092;7.080;2022-08-04T08:20:00;27.40;91.30
22986;DHT22;11659;51.092;7.080;2022-08-04T08:22:27;27.50;91.20
22986;DHT22;11659;51.092;7.080;2022-08-04T08:24:54;27.60;91.10
22986;DHT22;11659;51.092;7.080;2022-08-04T08:27:20;27.70;91.10
22986;DHT22;11659;51.092;7.080;2022-08-04T08:29:46;27.80;90.90
22986;DHT22;11659;51.092;7.080;2022-08-04T08:32:13;27.90;90.80
22986;DHT22;11659;51.092;7.080;2022-08-04T08:34:40;27.90;90.70
22986;DHT22;11659;51.092;7.080;2022-08-04T08:37:12;28.10;90.60
22986;DHT22;11659;51.092;7.080;2022-08-04T08:39:43;28.20;90.60
22986;DHT22;11659;51.092;7.080;2022-08-04T08:42:35;28.30;90.60
22986;DHT22;11659;51.092;7.080;2022-08-04T08:45:23;28.40;90.40
22986;DHT22;11659;51.092;7.080;2022-08-04T08:48:15;28.50;90.30
22986;DHT22;11659;51.092;7.080;2022-08-04T08:51:07;28.70;90.20
22986;DHT22;11659;51.092;7.080;2022-08-04T08:56:40;28.90;90.10
22986;DHT22;11659;51.092;7.080;2022-08-04T08:59:27;29.00;90.00
22986;DHT22;11659;51.092;7.080;2022-08-04T09:02:20;29.10;89.60
22986;DHT22;11659;51.092;7.080;2022-08-04T09:05:09;29.20;89.20
22986;DHT22;11659;51.092;7.080;2022-08-04T09:07:56;29.30;89.30
22986;DHT22;11659;51.092;7.080;2022-08-04T09:10:32;29.40;88.60
22986;DHT22;11659;51.092;7.080;2022-08-04T09:13:03;29.50;88.40
22986;DHT22;11659;51.092;7.080;2022-08-04T09:15:35;29.70;88.30
22986;DHT22;11659;51.092;7.080;2022-08-04T09:18:06;29.80;87.40
22986;DHT22;11659;51.092;7.080;2022-08-04T09:20:39;29.90;86.80
22986;DHT22;11659;51.092;7.080;2022-08-04T09:23:16;30.00;86.10
22986;DHT22;11659;51.092;7.080;2022-08-04T09:25:48;30.10;85.70
22986;DHT22;11659;51.092;7.080;2022-08-04T09:28:20;30.20;85.40
22986;DHT22;11659;51.092;7.080;2022-08-04T09:30:55;30.30;85.70
22986;DHT22;11659;51.092;7.080;2022-08-04T09:33:29;30.30;85.70
22986;DHT22;11659;51.092;7.080;2022-08-04T09:35:59;30.40;85.20
22986;DHT22;11659;51.092;7.080;2022-08-04T09:38:32;30.50;84.70
22986;DHT22;11659;51.092;7.080;2022-08-04T09:41:06;30.50;84.50
22986;DHT22;11659;51.092;7.080;2022-08-04T09:43:47;30.70;84.60
22986;DHT22;11659;51.092;7.080;2022-08-04T09:46:20;30.90;84.30
22986;DHT22;11659;51.092;7.080;2022-08-04T09:48:52;31.00;84.10
22986;DHT22;11659;51.092;7.080;2022-08-04T09:51:24;31.10;83.30
22986;DHT22;11659;51.092;7.080;2022-08-04T09:54:00;31.20;82.70
22986;DHT22;11659;51.092;7.080;2022-08-04T09:56:31;31.30;82.20
22986;DHT22;11659;51.092;7.080;2022-08-04T09:59:06;31.40;82.10
22986;DHT22;11659;51.092;7.080;2022-08-04T10:01:37;31.50;82.00
22986;DHT22;11659;51.092;7.080;2022-08-04T10:04:08;31.60;82.20
22986;DHT22;11659;51.092;7.080;2022-08-04T10:07:02;31.60;82.00
22986;DHT22;11659;51.092;7.080;2022-08-04T10:09:49;31.70;82.00
22986;DHT22;11659;51.092;7.080;2022-08-04T10:12:28;31.80;81.10
22986;DHT22;11659;51.092;7.080;2022-08-04T10:15:02;32.00;80.60
22986;DHT22;11659;51.092;7.080;2022-08-04T10:17:41;32.00;81.30
22986;DHT22;11659;51.092;7.080;2022-08-04T10:20:17;32.20;80.20
22986;DHT22;11659;51.092;7.080;2022-08-04T10:22:53;32.30;79.60
22986;DHT22;11659;51.092;7.080;2022-08-04T10:25:32;32.40;79.30
22986;DHT22;11659;51.092;7.080;2022-08-04T10:28:04;32.50;78.70
22986;DHT22;11659;51.092;7.080;2022-08-04T10:30:32;32.70;76.70
22986;DHT22;11659;51.092;7.080;2022-08-04T10:33:10;32.70;75.60
22986;DHT22;11659;51.092;7.080;2022-08-04T10:35:45;32.80;75.10
22986;DHT22;11659;51.092;7.080;2022-08-04T10:38:19;32.90;75.00
22986;DHT22;11659;51.092;7.080;2022-08-04T10:40:49;32.90;75.20
22986;DHT22;11659;51.092;7.080;2022-08-04T10:43:27;32.80;75.50
22986;DHT22;11659;51.092;7.080;2022-08-04T10:46:00;32.80;75.50
22986;DHT22;11659;51.092;7.080;2022-08-04T10:48:40;32.80;74.40
22986;DHT22;11659;51.092;7.080;2022-08-04T10:51:14;32.70;73.30
22986;DHT22;11659;51.092;7.080;2022-08-04T10:53:43;32.50;72.80
22986;DHT22;11659;51.092;7.080;2022-08-04T10:56:15;32.50;72.90
22986;DHT22;11659;51.092;7.080;2022-08-04T10:58:48;32.40;72.70
22986;DHT22;11659;51.092;7.080;2022-08-04T11:01:22;32.40;73.10
22986;DHT22;11659;51.092;7.080;2022-08-04T11:03:55;32.50;73.70
22986;DHT22;11659;51.092;7.080;2022-08-04T11:06:23;32.60;74.40
22986;DHT22;11659;51.092;7.080;2022-08-04T11:08:53;32.70;74.90
22986;DHT22;11659;51.092;7.080;2022-08-04T11:11:25;32.70;75.60
22986;DHT22;11659;51.092;7.080;2022-08-04T11:13:59;32.90;76.00
22986;DHT22;11659;51.092;7.080;2022-08-04T11:16:28;32.90;75.70
22986;DHT22;11659;51.092;7.080;2022-08-04T11:19:11;33.10;75.80
22986;DHT22;11659;51.092;7.080;2022-08-04T11:21:42;33.10;75.30
22986;DHT22;11659;51.092;7.080;2022-08-04T11:24:15;33.40;75.00
22986;DHT22;11659;51.092;7.080;2022-08-04T11:26:46;33.60;74.40
22986;DHT22;11659;51.092;7.080;2022-08-04T11:29:19;33.70;73.80
22986;DHT22;11659;51.092;7.080;2022-08-04T11:31:48;33.90;73.30
22986;DHT22;11659;51.092;7.080;2022-08-04T11:34:19;34.00;73.10
22986;DHT22;11659;51.092;7.080;2022-08-04T11:36:50;34.10;73.10
22986;DHT22;11659;51.092;7.080;2022-08-04T11:39:23;34.20;72.90
22986;DHT22;11659;51.092;7.080;2022-08-04T11:41:52;34.10;73.00
22986;DHT22;11659;51.092;7.080;2022-08-04T11:44:29;33.90;72.60
22986;DHT22;11659;51.092;7.080;2022-08-04T11:46:59;33.70;72.30
22986;DHT22;11659;51.092;7.080;2022-08-04T11:49:37;33.50;72.40
22986;DHT22;11659;51.092;7.080;2022-08-04T11:52:07;33.30;72.40
22986;DHT22;11659;51.092;7.080;2022-08-04T11:54:35;33.10;72.60
22986;DHT22;11659;51.092;7.080;2022-08-04T11:57:03;32.90;73.20
22986;DHT22;11659;51.092;7.080;2022-08-04T11:59:32;32.80;73.60
22986;DHT22;11659;51.092;7.080;2022-08-04T12:02:06;32.80;73.90
22986;DHT22;11659;51.092;7.080;2022-08-04T12:04:56;32.70;73.80
22986;DHT22;11659;51.092;7.080;2022-08-04T12:07:35;32.70;74.10
22986;DHT22;11659;51.092;7.080;2022-08-04T12:10:14;32.70;74.60
22986;DHT22;11659;51.092;7.080;2022-08-04T12:12:47;32.50;75.10
22986;DHT22;11659;51.092;7.080;2022-08-04T12:15:22;32.40;75.50
22986;DHT22;11659;51.092;7.080;2022-08-04T12:17:56;32.30;75.80
22986;DHT22;11659;51.092;7.080;2022-08-04T12:20:28;32.20;76.40
22986;DHT22;11659;51.092;7.080;2022-08-04T12:22:54;32.10;76.80
22986;DHT22;11659;51.092;7.080;2022-08-04T12:25:25;32.00;77.10
22986;DHT22;11659;51.092;7.080;2022-08-04T12:27:56;32.00;77.40
22986;DHT22;11659;51.092;7.080;2022-08-04T12:30:26;32.10;77.50
22986;DHT22;11659;51.092;7.080;2022-08-04T12:33:00;32.00;77.10
22986;DHT22;11659;51.092;7.080;2022-08-04T12:35:34;32.00;77.00
22986;DHT22;11659;51.092;7.080;2022-08-04T12:38:03;32.00;77.40
22986;DHT22;11659;51.092;7.080;2022-08-04T12:40:32;31.90;77.70
22986;DHT22;11659;51.092;7.080;2022-08-04T12:43:05;31.90;78.40
22986;DHT22;11659;51.092;7.080;2022-08-04T12:45:33;31.80;78.90
22986;DHT22;11659;51.092;7.080;2022-08-04T12:48:01;31.60;79.50
22986;DHT22;11659;51.092;7.080;2022-08-04T12:50:31;31.60;80.00
22986;DHT22;11659;51.092;7.080;2022-08-04T12:52:57;31.50;80.20
22986;DHT22;11659;51.092;7.080;2022-08-04T12:55:26;31.40;80.50
22986;DHT22;11659;51.092;7.080;2022-08-04T12:57:54;31.30;80.80
22986;DHT22;11659;51.092;7.080;2022-08-04T13:00:27;31.10;81.20
22986;DHT22;11659;51.092;7.080;2022-08-04T13:03:00;31.10;81.70
22986;DHT22;11659;51.092;7.080;2022-08-04T13:05:32;31.10;82.10
22986;DHT22;11659;51.092;7.080;2022-08-04T13:08:00;31.10;82.60
22986;DHT22;11659;51.092;7.080;2022-08-04T13:10:28;31.10;82.70
22986;DHT22;11659;51.092;7.080;2022-08-04T13:12:57;31.20;82.70
22986;DHT22;11659;51.092;7.080;2022-08-04T13:15:25;31.30;82.50
22986;DHT22;11659;51.092;7.080;2022-08-04T13:17:55;31.30;82.10
22986;DHT22;11659;51.092;7.080;2022-08-04T13:20:27;31.50;81.90
22986;DHT22;11659;51.092;7.080;2022-08-04T13:23:03;31.50;81.70
22986;DHT22;11659;51.092;7.080;2022-08-04T13:25:30;31.60;81.40
22986;DHT22;11659;51.092;7.080;2022-08-04T13:27:58;31.60;81.20
22986;DHT22;11659;51.092;7.080;2022-08-04T13:30:26;31.50;81.50
22986;DHT22;11659;51.092;7.080;2022-08-04T13:32:54;31.50;81.80
22986;DHT22;11659;51.092;7.080;2022-08-04T13:35:23;31.50;82.10
22986;DHT22;11659;51.092;7.080;2022-08-04T13:37:50;31.50;82.10
22986;DHT22;11659;51.092;7.080;2022-08-04T13:40:21;31.50;82.00
22986;DHT22;11659;51.092;7.080;2022-08-04T13:42:50;31.60;82.20
22986;DHT22;11659;51.092;7.080;2022-08-04T13:45:19;31.60;82.00
22986;DHT22;11659;51.092;7.080;2022-08-04T13:47:47;31.60;82.20
22986;DHT22;11659;51.092;7.080;2022-08-04T13:50:18;31.50;82.20
22986;DHT22;11659;51.092;7.080;2022-08-04T13:52:45;31.50;82.30
22986;DHT22;11659;51.092;7.080;2022-08-04T13:55:22;31.50;82.20
22986;DHT22;11659;51.092;7.080;2022-08-04T13:57:52;31.50;82.10
22986;DHT22;11659;51.092;7.080;2022-08-04T14:00:19;31.50;82.30
22986;DHT22;11659;51.092;7.080;2022-08-04T14:02:49;31.60;82.50
22986;DHT22;11659;51.092;7.080;2022-08-04T14:05:22;31.70;83.20
22986;DHT22;11659;51.092;7.080;2022-08-04T14:07:52;31.80;81.80
22986;DHT22;11659;51.092;7.080;2022-08-04T14:10:21;31.90;81.50
22986;DHT22;11659;51.092;7.080;2022-08-04T14:12:49;31.90;81.40
22986;DHT22;11659;51.092;7.080;2022-08-04T14:15:36;31.90;80.90
22986;DHT22;11659;51.092;7.080;2022-08-04T14:18:19;31.90;80.70
22986;DHT22;11659;51.092;7.080;2022-08-04T14:21:06;31.80;80.60
22986;DHT22;11659;51.092;7.080;2022-08-04T14:23:44;31.80;81.10
22986;DHT22;11659;51.092;7.080;2022-08-04T14:26:26;31.70;81.30
22986;DHT22;11659;51.092;7.080;2022-08-04T14:28:54;31.60;81.20
22986;DHT22;11659;51.092;7.080;2022-08-04T14:31:23;31.50;81.20
22986;DHT22;11659;51.092;7.080;2022-08-04T14:33:51;31.50;81.40
22986;DHT22;11659;51.092;7.080;2022-08-04T14:36:18;31.40;81.60
22986;DHT22;11659;51.092;7.080;2022-08-04T14:38:50;31.30;81.90
22986;DHT22;11659;51.092;7.080;2022-08-04T14:41:20;31.20;82.30
22986;DHT22;11659;51.092;7.080;2022-08-04T14:43:48;31.10;82.60
22986;DHT22;11659;51.092;7.080;2022-08-04T14:46:15;31.10;82.90
22986;DHT22;11659;51.092;7.080;2022-08-04T14:48:59;31.00;83.30
22986;DHT22;11659;51.092;7.080;2022-08-04T14:51:26;30.90;83.50
22986;DHT22;11659;51.092;7.080;2022-08-04T14:53:53;30.80;83.60
22986;DHT22;11659;51.092;7.080;2022-08-04T14:56:20;30.70;83.70
22986;DHT22;11659;51.092;7.080;2022-08-04T14:58:58;30.60;83.70
22986;DHT22;11659;51.092;7.080;2022-08-04T15:01:26;30.50;84.20
22986;DHT22;11659;51.092;7.080;2022-08-04T15:03:53;30.50;84.40
22986;DHT22;11659;51.092;7.080;2022-08-04T15:06:21;30.40;84.50
22986;DHT22;11659;51.092;7.080;2022-08-04T15:08:48;30.40;84.70
22986;DHT22;11659;51.092;7.080;2022-08-04T15:11:14;30.30;84.80
22986;DHT22;11659;51.092;7.080;2022-08-04T15:13:42;30.20;85.00
22986;DHT22;11659;51.092;7.080;2022-08-04T15:16:09;30.20;85.30
22986;DHT22;11659;51.092;7.080;2022-08-04T15:18:36;30.20;85.50
22986;DHT22;11659;51.092;7.080;2022-08-04T15:21:03;30.10;85.60
22986;DHT22;11659;51.092;7.080;2022-08-04T15:23:30;30.10;85.60
22986;DHT22;11659;51.092;7.080;2022-08-04T15:26:00;30.10;85.90
22986;DHT22;11659;51.092;7.080;2022-08-04T15:28:28;30.00;86.00
22986;DHT22;11659;51.092;7.080;2022-08-04T15:31:00;30.00;86.10
22986;DHT22;11659;51.092;7.080;2022-08-04T15:33:28;29.90;86.20
22986;DHT22;11659;51.092;7.080;2022-08-04T15:36:09;29.90;86.60
22986;DHT22;11659;51.092;7.080;2022-08-04T15:38:38;29.80;86.60
22986;DHT22;11659;51.092;7.080;2022-08-04T15:41:09;29.70;86.80
22986;DHT22;11659;51.092;7.080;2022-08-04T15:43:55;29.70;86.80
22986;DHT22;11659;51.092;7.080;2022-08-04T15:49:43;29.60;86.90
22986;DHT22;11659;51.092;7.080;2022-08-04T15:52:11;29.60;86.90
22986;DHT22;11659;51.092;7.080;2022-08-04T15:54:38;29.50;86.90
22986;DHT22;11659;51.092;7.080;2022-08-04T15:57:05;29.50;87.10
22986;DHT22;11659;51.092;7.080;2022-08-04T16:00:00;29.40;87.20
22986;DHT22;11659;51.092;7.080;2022-08-04T16:02:48;29.30;87.60
22986;DHT22;11659;51.092;7.080;2022-08-04T16:05:34;29.20;88.00
22986;DHT22;11659;51.092;7.080;2022-08-04T16:08:13;29.10;88.30
22986;DHT22;11659;51.092;7.080;2022-08-04T16:10:41;29.00;88.40
22986;DHT22;11659;51.092;7.080;2022-08-04T16:13:08;28.90;88.60
22986;DHT22;11659;51.092;7.080;2022-08-04T16:15:40;28.80;88.90
22986;DHT22;11659;51.092;7.080;2022-08-04T16:18:08;28.80;89.10
22986;DHT22;11659;51.092;7.080;2022-08-04T16:20:35;28.70;89.30
22986;DHT22;11659;51.092;7.080;2022-08-04T16:26:00;28.60;89.90
22986;DHT22;11659;51.092;7.080;2022-08-04T16:28:37;28.60;90.00
22986;DHT22;11659;51.092;7.080;2022-08-04T16:31:04;28.50;90.10
22986;DHT22;11659;51.092;7.080;2022-08-04T16:33:34;28.50;90.30
22986;DHT22;11659;51.092;7.080;2022-08-04T16:36:01;28.50;90.40
22986;DHT22;11659;51.092;7.080;2022-08-04T16:38:28;28.40;90.50
22986;DHT22;11659;51.092;7.080;2022-08-04T16:40:55;28.40;90.60
22986;DHT22;11659;51.092;7.080;2022-08-04T16:43:26;28.40;90.70